createdAt,value
2018-11-13T00:00:28.733Z,44.33
2018-11-13T00:02:58.047Z,45.26
2018-11-13T00:05:26.966Z,46.25
2018-11-13T00:07:55.574Z,47.44
2018-11-13T00:10:24.915Z,46.58
2018-11-13T00:12:53.474Z,46.63
2018-11-13T00:15:22.167Z,46.02
2018-11-13T00:17:50.916Z,45.90
2018-11-13T00:20:19.898Z,46.38
2018-11-13T00:22:49.239Z,48.85
2018-11-13T00:25:19.646Z,47.84
2018-11-13T00:27:48.290Z,48.51
2018-11-13T00:30:19.861Z,48.40
2018-11-13T00:32:48.730Z,46.86
2018-11-13T00:35:18.142Z,46.95
2018-11-13T00:37:47.226Z,45.90
2018-11-13T00:40:17.364Z,46.58
2018-11-13T00:42:46.441Z,46.48
2018-11-13T00:45:14.948Z,45.74
2018-11-13T00:47:43.443Z,45.60
2018-11-13T00:50:15.197Z,44.66
2018-11-13T00:52:44.501Z,45.11
2018-11-13T00:55:13.353Z,44.58
2018-11-13T00:57:42.636Z,44.47
2018-11-13T01:00:14.198Z,43.83
2018-11-13T01:02:43.708Z,43.30
2018-11-13T01:05:14.417Z,42.62
2018-11-13T01:07:44.113Z,43.27
2018-11-13T01:10:14.547Z,43.56
2018-11-13T01:12:44.498Z,43.31
2018-11-13T01:15:14.493Z,43.10
2018-11-13T01:17:43.950Z,43.69
2018-11-13T01:20:12.930Z,44.21
2018-11-13T01:22:41.638Z,45.64
2018-11-13T01:25:11.171Z,45.86
2018-11-13T01:27:39.917Z,47.34
2018-11-13T01:30:10.003Z,47.72
2018-11-13T01:32:39.539Z,47.35
2018-11-13T01:35:11.859Z,47.23
2018-11-13T01:37:40.448Z,47.77
2018-11-13T01:40:13.460Z,46.84
2018-11-13T01:42:42.402Z,48.11
2018-11-13T01:45:12.596Z,48.80
2018-11-13T01:47:41.385Z,49.16
2018-11-13T01:50:10.683Z,48.21
2018-11-13T01:52:39.192Z,49.74
2018-11-13T01:55:09.957Z,50.57
2018-11-13T01:57:38.802Z,50.99
2018-11-13T02:00:15.572Z,52.83
2018-11-13T02:02:45.161Z,52.24
2018-11-13T02:05:13.757Z,51.95
2018-11-13T02:07:42.309Z,49.95
2018-11-13T02:10:10.873Z,50.55
2018-11-13T02:12:39.478Z,51.01
2018-11-13T02:15:08.787Z,51.72
2018-11-13T02:17:38.214Z,53.67
2018-11-13T02:20:09.394Z,57.79
2018-11-13T02:22:38.178Z,59.36
2018-11-13T02:25:08.547Z,59.65
2018-11-13T02:27:37.092Z,57.92
2018-11-13T02:30:06.989Z,57.24
2018-11-13T02:32:35.611Z,57.82
2018-11-13T02:35:04.433Z,56.57
2018-11-13T02:37:32.920Z,56.77
2018-11-13T02:40:01.539Z,57.47
2018-11-13T02:42:30.820Z,59.03
2018-11-13T02:44:59.444Z,59.96
2018-11-13T02:47:29.408Z,61.95
2018-11-13T02:49:58.534Z,60.85
2018-11-13T02:52:27.096Z,60.02
2018-11-13T02:54:55.825Z,60.35
2018-11-13T02:57:24.349Z,62.23
2018-11-13T02:59:52.924Z,60.02
2018-11-13T03:02:21.449Z,59.86
2018-11-13T03:04:50.165Z,59.53
2018-11-13T03:07:19.826Z,59.29
2018-11-13T03:09:48.964Z,58.59
2018-11-13T03:12:17.800Z,58.86
2018-11-13T03:14:46.353Z,59.40
2018-11-13T03:17:14.843Z,59.68
2018-11-13T03:19:43.373Z,58.15
2018-11-13T03:22:12.518Z,60.35
2018-11-13T03:24:41.527Z,60.79
2018-11-13T03:27:10.193Z,58.79
2018-11-13T03:29:39.381Z,57.12
2018-11-13T03:32:08.056Z,57.10
2018-11-13T03:34:36.758Z,57.71
2018-11-13T03:37:05.616Z,56.84
2018-11-13T03:39:34.110Z,56.59
2018-11-13T03:42:03.020Z,55.94
2018-11-13T03:44:31.607Z,56.52
2018-11-13T03:47:00.813Z,56.87
2018-11-13T03:49:29.525Z,57.48
2018-11-13T03:51:58.079Z,56.50
2018-11-13T03:54:26.780Z,54.85
2018-11-13T03:56:55.474Z,57.29
2018-11-13T03:59:24.161Z,55.18
2018-11-13T04:01:52.732Z,56.88
2018-11-13T04:04:21.994Z,57.01
2018-11-13T04:06:50.748Z,56.63
2018-11-13T04:09:19.265Z,56.18
2018-11-13T04:11:48.422Z,55.53
2018-11-13T04:14:16.957Z,54.16
2018-11-13T04:16:45.472Z,55.34
2018-11-13T04:19:13.958Z,54.71
2018-11-13T04:21:42.723Z,55.06
2018-11-13T04:24:11.758Z,53.87
2018-11-13T04:26:40.264Z,55.08
2018-11-13T04:29:08.814Z,56.47
2018-11-13T04:31:37.319Z,55.42
2018-11-13T04:34:06.570Z,54.10
2018-11-13T04:36:35.134Z,54.21
2018-11-13T04:39:04.613Z,55.19
2018-11-13T04:41:33.678Z,55.19
2018-11-13T04:44:02.276Z,53.92
2018-11-13T04:46:31.548Z,53.36
2018-11-13T04:49:00.064Z,54.22
2018-11-13T04:51:28.871Z,52.99
2018-11-13T04:53:57.662Z,52.59
2018-11-13T04:56:26.204Z,52.79
2018-11-13T04:58:54.828Z,52.46
2018-11-13T05:01:23.324Z,51.93
2018-11-13T05:03:52.594Z,52.59
2018-11-13T05:06:21.475Z,53.71
2018-11-13T05:08:50.027Z,53.93
2018-11-13T05:11:21.656Z,52.36
2018-11-13T05:13:50.290Z,53.89
2018-11-13T05:16:18.873Z,52.55
2018-11-13T05:18:47.410Z,54.87
2018-11-13T05:21:16.381Z,53.90
2018-11-13T05:23:44.953Z,53.13
2018-11-13T05:26:13.516Z,53.46
2018-11-13T05:28:42.317Z,54.70
2018-11-13T05:31:11.041Z,55.05
2018-11-13T05:33:39.556Z,54.46
2018-11-13T05:36:08.120Z,53.59
2018-11-13T05:38:37.698Z,53.47
2018-11-13T05:41:06.378Z,53.53
2018-11-13T05:43:35.613Z,54.74
2018-11-13T05:46:04.166Z,53.03
2018-11-13T05:48:33.048Z,55.14
2018-11-13T05:51:02.114Z,52.96
2018-11-13T05:53:30.731Z,53.49
2018-11-13T05:55:59.270Z,52.59
2018-11-13T05:58:27.791Z,56.29
2018-11-13T06:00:56.499Z,54.92
2018-11-13T06:03:24.996Z,52.51
2018-11-13T06:05:53.525Z,55.53
2018-11-13T06:08:22.101Z,56.92
2018-11-13T06:10:51.785Z,56.41
2018-11-13T06:13:20.296Z,55.40
2018-11-13T06:15:49.468Z,55.97
2018-11-13T06:18:18.260Z,57.64
2018-11-13T06:20:47.826Z,56.90
2018-11-13T06:23:16.321Z,56.25
2018-11-13T06:25:44.934Z,56.29
2018-11-13T06:28:13.532Z,57.43
2018-11-13T06:30:42.164Z,60.50
2018-11-13T06:33:10.685Z,59.78
2018-11-13T06:35:40.189Z,59.94
2018-11-13T06:38:08.709Z,58.75
2018-11-13T06:40:38.070Z,60.31
2018-11-13T06:43:06.935Z,60.34
2018-11-13T06:45:35.527Z,60.99
2018-11-13T06:48:04.190Z,59.09
2018-11-13T06:50:32.659Z,59.51
2018-11-13T06:53:01.224Z,61.09
2018-11-13T06:55:31.771Z,60.79
2018-11-13T06:58:00.529Z,60.01
2018-11-13T07:00:29.024Z,60.25
2018-11-13T07:02:57.637Z,59.60
2018-11-13T07:05:26.144Z,58.57
2018-11-13T07:07:54.850Z,58.28
2018-11-13T07:10:24.446Z,57.11
2018-11-13T07:12:53.848Z,57.96
2018-11-13T07:15:23.692Z,58.38
2018-11-13T07:17:53.603Z,57.45
2018-11-13T07:20:23.302Z,57.25
2018-11-13T07:22:52.068Z,56.23
2018-11-13T07:25:21.992Z,56.26
2018-11-13T07:27:50.819Z,55.27
2018-11-13T07:30:20.006Z,55.09
2018-11-13T07:32:49.140Z,54.25
2018-11-13T07:35:19.308Z,53.63
2018-11-13T07:37:49.793Z,53.58
2018-11-13T07:40:18.615Z,52.99
2018-11-13T07:42:47.828Z,52.87
2018-11-13T07:45:16.895Z,53.88
2018-11-13T07:47:49.011Z,53.83
2018-11-13T07:50:19.131Z,53.21
2018-11-13T07:52:48.384Z,54.93
2018-11-13T07:55:17.850Z,54.46
2018-11-13T07:57:47.039Z,53.00
2018-11-13T08:00:19.003Z,53.25
2018-11-13T08:02:49.092Z,53.41
2018-11-13T08:05:17.959Z,52.54
2018-11-13T08:07:46.700Z,52.80
2018-11-13T08:10:15.473Z,53.30
2018-11-13T08:12:44.207Z,53.72
2018-11-13T08:15:14.859Z,53.20
2018-11-13T08:17:44.275Z,54.07
2018-11-13T08:20:14.100Z,54.30
2018-11-13T08:22:43.400Z,53.41
2018-11-13T08:25:12.863Z,53.24
2018-11-13T08:27:42.162Z,53.35
2018-11-13T08:30:13.305Z,52.44
2018-11-13T08:32:42.014Z,53.07
2018-11-13T08:35:10.677Z,54.08
2018-11-13T08:37:39.270Z,53.35
2018-11-13T08:40:10.318Z,53.87
2018-11-13T08:42:38.887Z,54.22
2018-11-13T08:45:08.910Z,54.57
2018-11-13T08:47:37.707Z,55.97
2018-11-13T08:50:06.647Z,56.07
2018-11-13T08:52:35.266Z,56.35
2018-11-13T08:55:04.180Z,56.42
2018-11-13T08:57:34.179Z,57.31
2018-11-13T09:00:03.223Z,57.73
2018-11-13T09:02:31.721Z,56.01
2018-11-13T09:05:00.548Z,55.71
2018-11-13T09:07:29.100Z,55.43
2018-11-13T09:09:58.291Z,56.03
2018-11-13T09:12:26.939Z,58.29
2018-11-13T09:14:56.307Z,59.09
2018-11-13T09:17:24.914Z,58.05
2018-11-13T09:19:53.609Z,56.49
2018-11-13T09:22:22.177Z,55.49
2018-11-13T09:24:50.769Z,56.90
2018-11-13T09:27:19.366Z,58.12
2018-11-13T09:29:48.092Z,56.63
2018-11-13T09:32:16.597Z,57.62
2018-11-13T09:34:45.137Z,58.73
2018-11-13T09:37:13.809Z,59.40
2018-11-13T09:39:43.266Z,59.41
2018-11-13T09:42:12.064Z,58.87
2018-11-13T09:44:40.579Z,57.97
2018-11-13T09:47:09.138Z,57.40
2018-11-13T09:49:37.702Z,56.75
2018-11-13T09:52:06.476Z,55.60
2018-11-13T09:54:35.100Z,55.63
2018-11-13T09:57:03.656Z,56.39
2018-11-13T09:59:32.247Z,55.02
2018-11-13T10:02:01.143Z,56.45
2018-11-13T10:04:29.958Z,55.41
2018-11-13T10:06:57.970Z,54.72
2018-11-13T10:09:27.488Z,53.90
2018-11-13T10:11:56.036Z,51.90
2018-11-13T10:14:24.798Z,52.55
2018-11-13T10:16:53.610Z,54.12
2018-11-13T10:19:22.757Z,53.27
2018-11-13T10:21:51.670Z,56.15
2018-11-13T10:24:20.788Z,54.23
2018-11-13T10:26:49.394Z,55.46
2018-11-13T10:29:18.486Z,55.99
2018-11-13T10:31:47.797Z,55.18
2018-11-13T10:34:17.338Z,55.67
2018-11-13T10:36:46.303Z,54.48
2018-11-13T10:39:15.849Z,54.99
2018-11-13T10:41:44.958Z,54.70
2018-11-13T10:44:13.507Z,54.76
2018-11-13T10:46:42.117Z,52.98
2018-11-13T10:49:11.337Z,51.29
2018-11-13T10:51:39.724Z,50.88
2018-11-13T10:54:08.227Z,51.44
2018-11-13T10:56:37.637Z,50.63
2018-11-13T10:59:07.415Z,51.37
2018-11-13T11:01:41.329Z,49.90
2018-11-13T11:04:14.015Z,51.55
2018-11-13T11:06:42.521Z,50.81
2018-11-13T11:09:10.996Z,50.10
2018-11-13T11:11:40.371Z,50.97
2018-11-13T11:14:11.572Z,50.22
2018-11-13T11:16:43.691Z,50.09
2018-11-13T11:19:15.914Z,51.59
2018-11-13T11:21:44.813Z,51.52
2018-11-13T11:24:13.710Z,51.17
2018-11-13T11:26:43.062Z,51.40
2018-11-13T11:29:12.765Z,51.63
2018-11-13T11:31:41.573Z,50.65
2018-11-13T11:34:10.256Z,49.90
2018-11-13T11:36:40.600Z,49.24
2018-11-13T11:39:10.873Z,49.49
2018-11-13T11:41:39.651Z,50.02
2018-11-13T11:44:09.080Z,51.75
2018-11-13T11:46:38.097Z,49.26
2018-11-13T11:49:06.914Z,50.38
2018-11-13T11:51:37.042Z,49.81
2018-11-13T11:54:06.544Z,49.65
2018-11-13T11:56:35.255Z,49.37
2018-11-13T11:59:03.785Z,50.57
2018-11-13T12:01:32.417Z,48.88
2018-11-13T12:04:00.946Z,48.91
2018-11-13T12:06:29.599Z,49.53
2018-11-13T12:08:58.342Z,47.59
2018-11-13T12:11:26.892Z,48.45
2018-11-13T12:13:55.577Z,49.73
2018-11-13T12:16:25.273Z,48.45
2018-11-13T12:18:53.921Z,47.45
2018-11-13T12:21:22.479Z,49.47
2018-11-13T12:23:51.159Z,49.95
2018-11-13T12:26:20.755Z,47.81
2018-11-13T12:28:49.317Z,49.09
2018-11-13T12:31:17.816Z,47.75
2018-11-13T12:33:46.613Z,47.92
2018-11-13T12:36:15.204Z,47.25
2018-11-13T12:38:44.059Z,45.19
2018-11-13T12:41:13.890Z,47.18
2018-11-13T12:43:42.481Z,44.70
2018-11-13T12:46:33.111Z,46.90
2018-11-13T12:49:05.036Z,45.63
2018-11-13T12:51:40.226Z,47.39
2018-11-13T12:54:10.587Z,46.15
2018-11-13T12:56:39.963Z,45.76
2018-11-13T12:59:10.259Z,44.45
2018-11-13T13:01:38.765Z,44.24
2018-11-13T13:04:08.014Z,43.81
2018-11-13T13:06:38.885Z,44.30
2018-11-13T13:09:10.291Z,44.73
2018-11-13T13:11:38.827Z,44.79
2018-11-13T13:14:12.974Z,44.20
2018-11-13T13:16:41.543Z,43.05
2018-11-13T13:19:11.802Z,45.60
2018-11-13T13:21:42.576Z,46.09
2018-11-13T13:24:11.383Z,44.54
2018-11-13T13:26:39.964Z,47.37
2018-11-13T13:29:08.918Z,48.24
2018-11-13T13:31:39.168Z,45.75
2018-11-13T13:34:08.062Z,44.14
2018-11-13T13:36:36.755Z,44.20
2018-11-13T13:48:21.917Z,45.35
2018-11-13T13:50:51.295Z,44.09
2018-11-13T13:53:20.465Z,45.03
2018-11-13T13:55:49.910Z,46.44
2018-11-13T13:58:19.129Z,46.11
2018-11-13T14:00:47.949Z,46.17
2018-11-13T14:03:16.594Z,47.08
2018-11-13T14:05:45.885Z,45.58
2018-11-13T14:08:15.142Z,46.62
2018-11-13T14:10:43.771Z,46.59
2018-11-13T14:13:12.878Z,44.67
2018-11-13T14:15:41.708Z,45.87
2018-11-13T14:18:10.450Z,44.89
2018-11-13T14:20:39.074Z,44.34
2018-11-13T14:23:07.659Z,43.00
2018-11-13T14:25:36.191Z,41.04
2018-11-13T14:28:04.773Z,39.72
2018-11-13T14:30:34.846Z,39.16
2018-11-13T14:33:11.588Z,39.66
2018-11-13T14:35:41.661Z,41.92
2018-11-13T14:38:10.368Z,40.80
2018-11-13T14:40:40.250Z,40.83
2018-11-13T14:43:09.176Z,37.47
2018-11-13T14:45:37.760Z,36.30
2018-11-13T14:48:07.284Z,35.19
2018-11-13T14:50:36.734Z,35.15
2018-11-13T14:53:05.733Z,37.46
2018-11-13T14:55:37.172Z,39.04
2018-11-13T14:58:09.965Z,38.73
2018-11-13T15:00:40.927Z,38.56
2018-11-13T15:03:11.141Z,39.83
2018-11-13T15:05:39.811Z,40.49
2018-11-13T15:08:09.653Z,39.50
2018-11-13T15:10:48.755Z,41.88
2018-11-13T15:13:17.617Z,40.34
2018-11-13T15:15:47.397Z,41.99
2018-11-13T15:18:16.402Z,42.11
2018-11-13T15:20:45.802Z,42.55
2018-11-13T15:23:14.884Z,42.74
2018-11-13T15:25:43.488Z,42.19
2018-11-13T15:28:13.315Z,43.96
2018-11-13T15:30:45.681Z,43.93
2018-11-13T15:33:24.583Z,44.35
2018-11-13T15:35:53.337Z,44.21
2018-11-13T15:38:22.573Z,45.15
2018-11-13T15:40:51.313Z,43.60
2018-11-13T15:43:19.891Z,44.04
2018-11-13T15:45:48.562Z,43.49
2018-11-13T15:48:17.629Z,45.58
2018-11-13T15:50:46.342Z,44.14
2018-11-13T15:53:15.648Z,44.33
2018-11-13T15:55:44.204Z,44.84
2018-11-13T15:58:13.042Z,44.37
2018-11-13T16:00:42.563Z,45.31
2018-11-13T16:03:16.976Z,47.07
2018-11-13T16:05:46.987Z,46.27
2018-11-13T16:08:16.260Z,47.20
2018-11-13T16:10:44.938Z,47.05
2018-11-13T16:13:14.046Z,46.00
2018-11-13T16:15:43.606Z,45.56
2018-11-13T16:18:13.904Z,45.62
2018-11-13T16:20:42.620Z,45.44
2018-11-13T16:23:11.385Z,46.15
2018-11-13T16:25:41.214Z,46.31
2018-11-13T16:28:10.286Z,46.67
2018-11-13T16:30:40.235Z,46.31
2018-11-13T16:33:08.992Z,46.20
2018-11-13T16:35:37.738Z,46.62
2018-11-13T16:38:08.111Z,47.69
2018-11-13T16:40:36.696Z,46.64
2018-11-13T16:43:05.590Z,47.04
2018-11-13T16:45:35.793Z,47.49
2018-11-13T16:48:05.421Z,47.72
2018-11-13T16:50:36.225Z,48.06
2018-11-13T16:53:05.906Z,48.01
2018-11-13T16:55:40.651Z,47.82
2018-11-13T16:58:11.771Z,47.61
2018-11-13T17:00:40.501Z,47.26
2018-11-13T17:03:09.013Z,46.87
2018-11-13T17:05:38.520Z,47.54
2018-11-13T17:08:08.167Z,48.12
2018-11-13T17:10:39.367Z,48.80
2018-11-13T17:13:08.179Z,48.74
2018-11-13T17:15:36.977Z,50.19
2018-11-13T17:18:06.286Z,48.92
2018-11-13T17:20:35.223Z,48.39
2018-11-13T17:23:04.103Z,48.12
2018-11-13T17:25:35.235Z,47.80
2018-11-13T17:28:05.160Z,48.88
2018-11-13T17:30:35.790Z,48.65
2018-11-13T17:33:05.917Z,48.85
2018-11-13T17:35:34.448Z,48.65
2018-11-13T17:38:03.692Z,47.95
2018-11-13T17:40:33.813Z,48.85
2018-11-13T17:43:03.896Z,48.63
2018-11-13T17:45:37.434Z,48.49
2018-11-13T17:48:07.589Z,48.61
2018-11-13T17:50:38.192Z,48.96
2018-11-13T17:53:08.076Z,48.91
2018-11-13T17:55:37.596Z,48.83
2018-11-13T17:58:09.009Z,48.75
2018-11-13T18:00:40.816Z,49.15
2018-11-13T18:03:10.983Z,49.30
2018-11-13T18:05:40.939Z,49.57
2018-11-13T18:08:11.125Z,48.80
2018-11-13T18:10:41.371Z,49.03
2018-11-13T18:13:10.567Z,49.38
2018-11-13T18:15:41.938Z,49.32
2018-11-13T18:18:10.707Z,49.71
2018-11-13T18:20:40.315Z,50.17
2018-11-13T18:23:09.580Z,50.08
2018-11-13T18:25:38.329Z,50.78
2018-11-13T18:28:07.369Z,50.39
2018-11-13T18:30:37.272Z,51.58
2018-11-13T18:33:06.509Z,50.60
2018-11-13T18:35:36.367Z,50.36
2018-11-13T18:38:06.656Z,51.19
2018-11-13T18:40:35.570Z,50.34
2018-11-13T18:43:04.633Z,50.44
2018-11-13T18:45:34.682Z,51.39
2018-11-13T18:48:03.226Z,51.13
2018-11-13T18:50:33.212Z,50.70
2018-11-13T18:53:01.804Z,51.03
2018-11-13T18:55:31.094Z,51.73
2018-11-13T18:58:00.442Z,51.50
2018-11-13T19:00:30.984Z,52.89
2018-11-13T19:03:00.617Z,51.56
2018-11-13T19:05:29.299Z,51.45
2018-11-13T19:07:58.269Z,51.89
2018-11-13T19:10:33.421Z,51.60
2018-11-13T19:13:03.166Z,52.02
2018-11-13T19:15:33.347Z,52.19
2018-11-13T19:18:02.240Z,51.75
2018-11-13T19:20:36.565Z,52.76
2018-11-13T19:23:05.257Z,53.87
2018-11-13T19:25:34.865Z,53.67
2018-11-13T19:28:03.550Z,52.97
2018-11-13T19:30:32.234Z,53.57
2018-11-13T19:33:00.873Z,52.40
2018-11-13T19:35:29.531Z,52.63
2018-11-13T19:37:58.545Z,53.79
2018-11-13T19:40:29.462Z,53.96
2018-11-13T19:42:59.070Z,52.77
2018-11-13T19:45:28.365Z,53.03
2018-11-13T19:47:57.031Z,52.53
2018-11-13T19:50:27.172Z,53.20
2018-11-13T19:52:55.731Z,53.16
2018-11-13T19:55:25.223Z,52.69
2018-11-13T19:57:53.754Z,52.20
2018-11-13T20:00:30.087Z,52.97
2018-11-13T20:03:00.326Z,53.51
2018-11-13T20:05:29.666Z,53.53
2018-11-13T20:07:58.521Z,54.19
2018-11-13T20:10:28.656Z,53.56
2018-11-13T20:12:59.381Z,52.77
2018-11-13T20:15:29.859Z,52.89
2018-11-13T20:17:58.420Z,53.57
2018-11-13T20:20:28.152Z,54.06
2018-11-13T20:22:57.115Z,53.67
2018-11-13T20:25:27.995Z,54.09
2018-11-13T20:27:56.588Z,53.07
2018-11-13T20:30:34.746Z,53.24
2018-11-13T20:33:03.598Z,53.06
2018-11-13T20:35:38.116Z,53.27
2018-11-13T20:38:07.592Z,52.90
2018-11-13T20:40:38.151Z,52.99
2018-11-13T20:43:09.298Z,53.27
2018-11-13T20:45:38.102Z,53.51
2018-11-13T20:48:07.074Z,54.20
2018-11-13T20:50:35.888Z,53.37
2018-11-13T20:53:19.979Z,53.83
2018-11-13T20:55:57.721Z,54.71
2018-11-13T21:02:00.251Z,53.76
2018-11-13T21:04:48.968Z,54.39
2018-11-13T21:10:22.207Z,55.73
2018-11-13T21:12:54.568Z,55.41
2018-11-13T21:15:23.448Z,54.85
2018-11-13T21:17:56.389Z,55.12
2018-11-13T21:20:31.809Z,54.80
2018-11-13T21:23:20.405Z,55.20
2018-11-13T21:28:56.699Z,56.10
2018-11-13T21:31:25.689Z,55.02
2018-11-13T21:33:54.537Z,55.54
2018-11-13T21:36:24.211Z,55.55
2018-11-13T21:38:53.184Z,55.17
2018-11-13T21:41:38.801Z,54.98
2018-11-13T21:47:33.353Z,55.88
2018-11-13T21:50:19.828Z,55.02
2018-11-13T21:53:02.885Z,56.15
2018-11-13T21:55:32.479Z,55.19
2018-11-13T21:58:01.068Z,54.99
2018-11-13T22:00:31.721Z,54.90
2018-11-13T22:03:06.067Z,55.00
2018-11-13T22:05:35.235Z,56.40
2018-11-13T22:08:04.792Z,56.10
2018-11-13T22:10:33.445Z,56.24
2018-11-13T22:13:02.278Z,56.10
2018-11-13T22:15:31.463Z,56.05
2018-11-13T22:18:00.881Z,55.68
2018-11-13T22:20:28.983Z,55.17
2018-11-13T22:22:58.726Z,55.22
2018-11-13T22:25:27.886Z,56.00
2018-11-13T22:27:57.680Z,55.42
2018-11-13T22:30:28.636Z,57.24
2018-11-13T22:32:57.545Z,57.10
2018-11-13T22:35:26.173Z,56.73
2018-11-13T22:37:54.963Z,56.55
2018-11-13T22:40:25.843Z,55.96
2018-11-13T22:42:54.637Z,55.50
2018-11-13T22:45:28.598Z,55.20
2018-11-13T22:47:58.692Z,55.92
2018-11-13T22:50:32.113Z,56.29
2018-11-13T22:53:00.973Z,55.97
2018-11-13T22:55:29.852Z,56.01
2018-11-13T22:57:59.768Z,56.85
2018-11-13T23:00:39.009Z,57.18
2018-11-13T23:03:08.998Z,56.87
2018-11-13T23:05:37.669Z,55.88
2018-11-13T23:08:07.201Z,56.40
2018-11-13T23:10:35.744Z,55.27
2018-11-13T23:13:04.688Z,55.96
2018-11-13T23:15:36.029Z,56.91
2018-11-13T23:18:04.885Z,56.06
2018-11-13T23:20:33.390Z,56.23
2018-11-13T23:23:02.209Z,56.00
2018-11-13T23:25:31.970Z,55.55
2018-11-13T23:28:00.677Z,55.99
2018-11-13T23:30:29.497Z,55.03
2018-11-13T23:32:59.532Z,56.22
2018-11-13T23:35:28.422Z,56.14
2018-11-13T23:37:58.393Z,56.64
2018-11-13T23:40:27.853Z,56.29
2018-11-13T23:42:56.634Z,55.67
2018-11-13T23:45:26.686Z,54.91
2018-11-13T23:47:55.178Z,56.30
2018-11-13T23:50:23.978Z,55.89
2018-11-13T23:52:52.866Z,55.66
2018-11-13T23:55:21.472Z,55.68
2018-11-13T23:57:50.182Z,55.66
